Time;durP1;ratioP1;P1;durP2;ratioP2;P2;SDS_P1;SDS_P2;PMS_P1;PMS_P2;Temp;Humidity;BMP_temperature;BMP_pressure;BME280_temperature;BME280_humidity;BME280_pressure;Samples;Min_cycle;Max_cycle;Signal;HPM_P1;HPM_P2
2023/08/16 00:01:41;;;;;;;9.20;6.90;;;;;;;;;;5072615;28;20450;-64
2023/08/16 00:04:08;;;;;;;12.40;6.70;;;;;;;;;;5072773;28;20770;-64
2023/08/16 00:06:35;;;;;;;7.03;6.43;;;;;;;;;;5072772;28;20448;-64
2023/08/16 00:09:04;;;;;;;9.93;7.20;;;;;;;;;;5072498;28;20532;-65
2023/08/16 00:11:31;;;;;;;9.63;6.07;;;;;;;;;;5072267;28;20799;-64
2023/08/16 00:13:59;;;;;;;9.50;6.90;;;;;;;;;;5072277;28;20461;-65
2023/08/16 00:16:26;;;;;;;6.70;6.20;;;;;;;;;;5071838;28;20567;-64
2023/08/16 00:18:55;;;;;;;7.27;6.20;;;;;;;;;;5072309;28;20484;-64
2023/08/16 00:21:22;;;;;;;7.33;6.63;;;;;;;;;;5071705;28;20535;-64
2023/08/16 00:23:49;;;;;;;6.63;6.00;;;;;;;;;;5071661;28;20467;-64
2023/08/16 00:26:16;;;;;;;9.40;6.50;;;;;;;;;;5071943;28;20496;-64
2023/08/16 00:28:45;;;;;;;7.23;6.50;;;;;;;;;;5072081;28;20468;-64
2023/08/16 00:31:12;;;;;;;7.50;6.70;;;;;;;;;;5073209;28;20476;-64
2023/08/16 00:33:39;;;;;;;8.83;6.83;;;;;;;;;;5075731;28;20442;-64
2023/08/16 00:36:08;;;;;;;7.43;6.70;;;;;;;;;;5075666;28;20436;-64
2023/08/16 00:38:37;;;;;;;7.90;6.23;;;;;;;;;;5075419;28;20900;-64
2023/08/16 00:41:04;;;;;;;7.67;6.10;;;;;;;;;;5076134;28;20456;-64
2023/08/16 00:43:31;;;;;;;10.53;7.20;;;;;;;;;;5075892;28;20442;-64
2023/08/16 00:45:59;;;;;;;7.43;6.73;;;;;;;;;;5075558;28;20446;-64
2023/08/16 00:48:26;;;;;;;7.53;6.53;;;;;;;;;;5075688;28;20530;-64
2023/08/16 00:50:53;;;;;;;7.33;6.63;;;;;;;;;;5075578;28;20450;-63
2023/08/16 00:53:22;;;;;;;8.73;6.47;;;;;;;;;;5075260;28;20570;-64
2023/08/16 00:55:49;;;;;;;11.10;7.83;;;;;;;;;;5076181;28;20425;-64
2023/08/16 00:58:16;;;;;;;7.40;6.70;;;;;;;;;;5075498;28;20486;-64
2023/08/16 01:00:44;;;;;;;7.73;6.63;;;;;;;;;;5075732;28;20551;-64
2023/08/16 01:03:11;;;;;;;8.20;6.80;;;;;;;;;;5075258;28;20806;-64
2023/08/16 01:05:39;;;;;;;7.67;6.37;;;;;;;;;;5075476;28;20440;-64
2023/08/16 01:08:06;;;;;;;11.93;6.77;;;;;;;;;;5075083;28;20793;-64
2023/08/16 01:10:39;;;;;;;7.30;6.60;;;;;;;;;;5075620;28;20440;-64
2023/08/16 01:13:09;;;;;;;10.23;6.60;;;;;;;;;;5074804;28;20437;-64
2023/08/16 01:15:39;;;;;;;8.03;7.43;;;;;;;;;;5075420;28;20832;-64
2023/08/16 01:18:07;;;;;;;6.93;6.23;;;;;;;;;;5075202;28;20818;-63
2023/08/16 01:20:35;;;;;;;7.97;6.53;;;;;;;;;;5075202;28;20519;-64
2023/08/16 01:23:06;;;;;;;7.40;6.20;;;;;;;;;;5074706;28;20552;-64
2023/08/16 01:25:41;;;;;;;8.00;6.73;;;;;;;;;;5074937;28;20536;-64
2023/08/16 01:28:10;;;;;;;7.77;7.00;;;;;;;;;;5074367;28;20478;-65
2023/08/16 01:30:38;;;;;;;8.63;6.97;;;;;;;;;;5074677;28;20801;-65
2023/08/16 01:33:09;;;;;;;7.37;6.67;;;;;;;;;;5074140;28;20536;-64
2023/08/16 01:35:37;;;;;;;8.07;7.27;;;;;;;;;;5074136;28;20534;-64
2023/08/16 01:38:04;;;;;;;9.50;7.07;;;;;;;;;;5073931;28;20567;-64
2023/08/16 01:40:32;;;;;;;8.07;7.13;;;;;;;;;;5074348;28;20514;-65
2023/08/16 01:43:01;;;;;;;12.50;6.80;;;;;;;;;;5073993;28;20440;-65
2023/08/16 01:45:29;;;;;;;8.93;7.30;;;;;;;;;;5074042;28;20524;-65
2023/08/16 01:47:57;;;;;;;7.13;6.43;;;;;;;;;;5073947;28;20449;-65
2023/08/16 01:50:25;;;;;;;9.87;6.83;;;;;;;;;;5073919;28;20447;-64
2023/08/16 01:52:52;;;;;;;8.27;7.10;;;;;;;;;;5073778;28;20440;-65
2023/08/16 01:55:19;;;;;;;7.83;7.03;;;;;;;;;;5074246;28;20474;-65
2023/08/16 01:57:47;;;;;;;8.80;6.40;;;;;;;;;;5073793;28;20479;-65
2023/08/16 02:00:15;;;;;;;7.03;6.20;;;;;;;;;;5074069;28;20462;-65
2023/08/16 02:02:44;;;;;;;7.33;6.60;;;;;;;;;;5073725;28;20518;-65
2023/08/16 02:05:11;;;;;;;13.90;6.30;;;;;;;;;;5074117;28;20432;-65
2023/08/16 02:07:38;;;;;;;8.67;6.13;;;;;;;;;;5073769;28;20548;-64
2023/08/16 02:10:06;;;;;;;6.97;6.27;;;;;;;;;;5074046;28;20524;-64
2023/08/16 02:12:33;;;;;;;11.60;7.10;;;;;;;;;;5073592;28;20435;-63
2023/08/16 02:15:00;;;;;;;8.77;7.20;;;;;;;;;;5074060;28;20539;-64
2023/08/16 02:17:27;;;;;;;8.60;7.10;;;;;;;;;;5073611;28;20488;-64
2023/08/16 02:19:56;;;;;;;13.60;7.70;;;;;;;;;;5073876;28;20444;-64
2023/08/16 02:22:24;;;;;;;11.60;9.13;;;;;;;;;;5074238;28;20472;-65
2023/08/16 02:24:52;;;;;;;13.20;9.80;;;;;;;;;;5074239;28;20440;-65
2023/08/16 02:27:19;;;;;;;13.93;11.50;;;;;;;;;;5073763;28;20439;-65
2023/08/16 02:29:46;;;;;;;13.03;9.77;;;;;;;;;;5074234;28;20440;-65
2023/08/16 02:32:13;;;;;;;13.10;10.17;;;;;;;;;;5074257;28;20451;-64
2023/08/16 02:34:40;;;;;;;16.90;10.30;;;;;;;;;;5073735;28;21008;-65
2023/08/16 02:37:09;;;;;;;15.47;11.63;;;;;;;;;;5073884;28;20547;-64
2023/08/16 02:39:36;;;;;;;12.33;9.60;;;;;;;;;;5073489;28;20448;-65
2023/08/16 02:42:03;;;;;;;16.00;11.70;;;;;;;;;;5074569;28;20444;-64
2023/08/16 02:44:30;;;;;;;10.40;9.50;;;;;;;;;;5073346;28;20934;-64
2023/08/16 02:46:58;;;;;;;13.73;10.90;;;;;;;;;;5073810;28;20809;-65
2023/08/16 02:49:25;;;;;;;12.10;10.97;;;;;;;;;;5073648;28;20463;-65
2023/08/16 02:51:52;;;;;;;12.17;10.97;;;;;;;;;;5073429;28;20444;-65
2023/08/16 02:54:21;;;;;;;12.93;11.03;;;;;;;;;;5072591;28;20468;-64
2023/08/16 02:56:48;;;;;;;14.50;11.33;;;;;;;;;;5073367;28;20523;-65
2023/08/16 02:59:15;;;;;;;12.40;11.17;;;;;;;;;;5073244;28;20483;-64
2023/08/16 03:01:43;;;;;;;16.53;13.07;;;;;;;;;;5073470;28;20438;-64
2023/08/16 03:04:11;;;;;;;14.27;11.20;;;;;;;;;;5072836;28;20475;-64
2023/08/16 03:06:38;;;;;;;14.33;11.77;;;;;;;;;;5073131;28;20437;-65
2023/08/16 03:09:05;;;;;;;14.97;12.40;;;;;;;;;;5072829;28;20452;-65
2023/08/16 03:11:34;;;;;;;16.60;11.50;;;;;;;;;;5072751;28;20920;-65
2023/08/16 03:14:01;;;;;;;15.30;12.83;;;;;;;;;;5072421;28;20563;-64
2023/08/16 03:16:28;;;;;;;16.33;12.70;;;;;;;;;;5072725;28;20444;-65
2023/08/16 03:18:56;;;;;;;14.50;12.70;;;;;;;;;;5072768;28;20512;-65
2023/08/16 03:21:24;;;;;;;14.10;12.60;;;;;;;;;;5072525;28;20485;-64
2023/08/16 03:23:51;;;;;;;19.97;13.90;;;;;;;;;;5073131;28;20484;-65
2023/08/16 03:26:18;;;;;;;16.53;13.03;;;;;;;;;;5072463;28;20468;-65
2023/08/16 03:28:47;;;;;;;14.37;12.87;;;;;;;;;;5072443;28;20940;-65
2023/08/16 03:31:14;;;;;;;13.33;12.03;;;;;;;;;;5072800;28;20446;-65
2023/08/16 03:33:41;;;;;;;15.07;13.57;;;;;;;;;;5072764;28;20488;-64
2023/08/16 03:36:08;;;;;;;16.90;12.77;;;;;;;;;;5072905;28;20442;-65
2023/08/16 03:38:35;;;;;;;14.37;11.77;;;;;;;;;;5072497;28;20481;-64
2023/08/16 03:41:03;;;;;;;16.10;12.63;;;;;;;;;;5073269;28;20952;-65
2023/08/16 03:43:31;;;;;;;13.47;11.37;;;;;;;;;;5073099;28;20527;-65
2023/08/16 03:45:59;;;;;;;13.83;11.60;;;;;;;;;;5072507;28;20523;-65
2023/08/16 03:48:27;;;;;;;15.33;12.50;;;;;;;;;;5072400;28;20944;-65
2023/08/16 03:50:54;;;;;;;11.93;10.73;;;;;;;;;;5072956;28;20931;-65
2023/08/16 03:53:21;;;;;;;13.17;11.87;;;;;;;;;;5072474;28;20570;-65
2023/08/16 03:55:48;;;;;;;13.67;11.63;;;;;;;;;;5071680;28;20435;-65
2023/08/16 03:58:15;;;;;;;13.43;10.70;;;;;;;;;;5072802;28;20587;-65
2023/08/16 04:00:43;;;;;;;14.97;10.90;;;;;;;;;;5072260;28;20443;-64
2023/08/16 04:03:11;;;;;;;12.70;10.90;;;;;;;;;;5072194;28;20523;-65
2023/08/16 04:05:38;;;;;;;13.40;12.10;;;;;;;;;;5072682;28;20446;-65
2023/08/16 04:08:06;;;;;;;17.33;13.00;;;;;;;;;;5076090;28;20450;-65
2023/08/16 04:10:33;;;;;;;12.07;10.77;;;;;;;;;;5076089;28;20523;-65
2023/08/16 04:13:00;;;;;;;13.30;11.97;;;;;;;;;;5076374;28;20483;-64
2023/08/16 04:15:27;;;;;;;16.63;12.97;;;;;;;;;;5076511;28;20519;-65
2023/08/16 04:17:55;;;;;;;20.03;13.37;;;;;;;;;;5076495;28;20566;-65
2023/08/16 04:20:24;;;;;;;16.53;12.53;;;;;;;;;;5076380;28;20535;-65
2023/08/16 04:22:51;;;;;;;16.27;14.20;;;;;;;;;;5076399;28;20526;-65
2023/08/16 04:25:18;;;;;;;16.17;14.20;;;;;;;;;;5088635;28;20443;-65
2023/08/16 04:27:46;;;;;;;17.73;13.77;;;;;;;;;;5096027;28;20538;-65
2023/08/16 04:30:13;;;;;;;15.30;13.73;;;;;;;;;;5096230;28;20529;-65
2023/08/16 04:32:40;;;;;;;16.43;14.73;;;;;;;;;;5096738;28;20448;-65
2023/08/16 04:35:08;;;;;;;22.03;14.83;;;;;;;;;;5096331;28;20439;-65
2023/08/16 04:37:37;;;;;;;19.00;14.10;;;;;;;;;;5096397;28;20440;-64
2023/08/16 04:40:04;;;;;;;16.30;13.80;;;;;;;;;;5096203;28;20431;-66
2023/08/16 04:42:34;;;;;;;21.13;14.63;;;;;;;;;;5096658;28;20438;-66
2023/08/16 04:45:01;;;;;;;17.50;14.80;;;;;;;;;;5096593;28;20444;-66
2023/08/16 04:47:29;;;;;;;16.30;13.90;;;;;;;;;;5096509;28;20481;-66
2023/08/16 04:49:56;;;;;;;19.10;14.90;;;;;;;;;;5096094;28;20508;-66
2023/08/16 04:52:23;;;;;;;15.70;13.63;;;;;;;;;;5095918;28;20440;-66
2023/08/16 04:54:52;;;;;;;18.83;14.47;;;;;;;;;;5096327;28;20487;-66
2023/08/16 04:57:19;;;;;;;16.03;13.70;;;;;;;;;;5095895;28;21015;-68
2023/08/16 04:59:47;;;;;;;15.63;14.10;;;;;;;;;;5096094;28;20493;-66
2023/08/16 05:02:14;;;;;;;22.80;14.17;;;;;;;;;;5096034;28;20450;-66
2023/08/16 05:04:41;;;;;;;18.40;15.10;;;;;;;;;;5095717;28;20451;-65
2023/08/16 05:07:08;;;;;;;17.63;15.27;;;;;;;;;;5095800;28;20436;-66
2023/08/16 05:09:36;;;;;;;18.73;14.80;;;;;;;;;;5096125;28;20447;-66
2023/08/16 05:12:05;;;;;;;18.07;16.17;;;;;;;;;;5095896;28;20440;-66
2023/08/16 05:14:33;;;;;;;16.70;15.00;;;;;;;;;;5095668;28;20435;-65
2023/08/16 05:17:00;;;;;;;18.90;15.00;;;;;;;;;;5095020;28;20485;-65
2023/08/16 05:19:27;;;;;;;16.70;15.00;;;;;;;;;;5095035;28;20566;-65
2023/08/16 05:21:54;;;;;;;16.60;14.87;;;;;;;;;;5095444;28;20450;-65
2023/08/16 05:24:21;;;;;;;16.57;14.33;;;;;;;;;;5095939;28;20740;-65
2023/08/16 05:26:48;;;;;;;20.33;14.03;;;;;;;;;;5094464;28;20440;-65
2023/08/16 05:29:17;;;;;;;15.80;14.20;;;;;;;;;;5094845;28;20454;-65
2023/08/16 05:31:44;;;;;;;16.30;14.07;;;;;;;;;;5095345;28;20601;-65
2023/08/16 05:34:11;;;;;;;19.13;13.83;;;;;;;;;;5095228;28;20529;-66
2023/08/16 05:36:46;;;;;;;16.13;13.60;;;;;;;;;;5094764;28;20932;-66
2023/08/16 05:39:13;;;;;;;16.20;14.10;;;;;;;;;;5095223;28;20569;-66
2023/08/16 05:41:41;;;;;;;16.60;13.00;;;;;;;;;;5094845;28;20443;-65
2023/08/16 05:44:08;;;;;;;23.77;14.70;;;;;;;;;;5094684;28;20532;-66
2023/08/16 05:46:36;;;;;;;15.10;12.57;;;;;;;;;;5094886;28;20607;-66
2023/08/16 05:49:05;;;;;;;18.93;14.67;;;;;;;;;;5094572;28;20963;-66
2023/08/16 05:51:33;;;;;;;21.73;14.10;;;;;;;;;;5094431;28;20473;-66
2023/08/16 05:54:00;;;;;;;14.57;12.93;;;;;;;;;;5094215;28;20482;-66
2023/08/16 05:56:27;;;;;;;18.13;13.93;;;;;;;;;;5094747;28;20620;-66
2023/08/16 05:58:54;;;;;;;16.43;12.80;;;;;;;;;;5094511;28;20472;-66
2023/08/16 06:01:22;;;;;;;26.40;13.07;;;;;;;;;;5094700;28;20466;-66
2023/08/16 06:03:50;;;;;;;13.80;11.70;;;;;;;;;;5094738;28;20462;-66
2023/08/16 06:06:18;;;;;;;14.57;12.33;;;;;;;;;;5094608;28;20438;-66
2023/08/16 06:08:45;;;;;;;24.33;13.17;;;;;;;;;;5094282;28;20455;-67
2023/08/16 06:11:12;;;;;;;18.40;11.33;;;;;;;;;;5094490;28;20435;-65
2023/08/16 06:13:40;;;;;;;27.97;14.17;;;;;;;;;;5094162;28;20465;-66
2023/08/16 06:16:07;;;;;;;20.17;15.00;;;;;;;;;;5094108;28;20447;-66
2023/08/16 06:18:34;;;;;;;19.87;14.63;;;;;;;;;;5094584;28;20511;-66
2023/08/16 06:21:03;;;;;;;19.27;15.53;;;;;;;;;;5094343;28;20474;-66
2023/08/16 06:23:30;;;;;;;21.33;17.03;;;;;;;;;;5094567;28;20527;-66
2023/08/16 06:25:57;;;;;;;20.70;17.17;;;;;;;;;;5094037;28;20440;-66
2023/08/16 06:28:24;;;;;;;21.07;18.80;;;;;;;;;;5093761;28;20435;-66
2023/08/16 06:30:52;;;;;;;25.10;19.53;;;;;;;;;;5094240;28;20526;-66
2023/08/16 06:33:22;;;;;;;26.00;19.33;;;;;;;;;;5094566;28;20805;-66
2023/08/16 06:35:51;;;;;;;24.60;20.13;;;;;;;;;;5094097;28;20428;-66
2023/08/16 06:38:20;;;;;;;24.60;18.80;;;;;;;;;;5094026;28;20795;-66
2023/08/16 06:40:49;;;;;;;21.77;19.27;;;;;;;;;;5094029;28;20447;-66
2023/08/16 06:43:17;;;;;;;22.30;20.00;;;;;;;;;;5093803;28;20940;-66
2023/08/16 06:45:44;;;;;;;20.50;18.30;;;;;;;;;;5094282;28;20439;-66
2023/08/16 06:48:11;;;;;;;25.00;18.60;;;;;;;;;;5093995;28;20531;-66
2023/08/16 06:50:38;;;;;;;25.50;19.10;;;;;;;;;;5093549;28;20444;-66
2023/08/16 06:53:05;;;;;;;21.20;19.10;;;;;;;;;;5093775;28;20797;-66
2023/08/16 06:55:36;;;;;;;22.33;19.93;;;;;;;;;;5093908;28;20434;-66
2023/08/16 06:58:05;;;;;;;20.40;18.10;;;;;;;;;;5093598;28;20419;-66
2023/08/16 07:00:32;;;;;;;25.10;17.57;;;;;;;;;;5093516;28;21052;-67
2023/08/16 07:02:59;;;;;;;25.67;18.20;;;;;;;;;;5093681;28;20439;-66
2023/08/16 07:05:28;;;;;;;27.57;17.50;;;;;;;;;;5093459;28;20432;-66
2023/08/16 07:07:55;;;;;;;20.83;16.70;;;;;;;;;;5093937;28;20928;-66
2023/08/16 07:10:22;;;;;;;23.73;17.50;;;;;;;;;;5093966;28;20443;-66
2023/08/16 07:12:51;;;;;;;17.83;15.80;;;;;;;;;;5093667;28;20531;-65
2023/08/16 07:15:18;;;;;;;28.10;15.80;;;;;;;;;;5093867;28;20542;-65
2023/08/16 07:17:45;;;;;;;20.47;17.00;;;;;;;;;;5093305;28;20438;-65
2023/08/16 07:20:12;;;;;;;18.57;16.57;;;;;;;;;;5093578;28;20476;-65
2023/08/16 07:22:40;;;;;;;23.60;17.87;;;;;;;;;;5093145;28;20530;-65
2023/08/16 07:25:08;;;;;;;23.03;17.97;;;;;;;;;;5093258;28;20434;-65
2023/08/16 07:27:35;;;;;;;21.60;18.53;;;;;;;;;;5093647;28;20525;-66
2023/08/16 07:30:06;;;;;;;25.80;17.30;;;;;;;;;;5093469;28;20481;-67
2023/08/16 07:32:34;;;;;;;23.63;16.77;;;;;;;;;;5093551;28;20466;-66
2023/08/16 07:35:01;;;;;;;32.03;18.30;;;;;;;;;;5093543;28;20528;-66
2023/08/16 07:37:31;;;;;;;23.23;16.73;;;;;;;;;;5093024;28;20518;-66
2023/08/16 07:39:59;;;;;;;24.93;16.80;;;;;;;;;;5093118;28;20466;-66
2023/08/16 07:42:26;;;;;;;27.30;19.53;;;;;;;;;;5092991;28;20443;-66
2023/08/16 07:44:53;;;;;;;27.70;17.90;;;;;;;;;;5093121;28;20447;-66
2023/08/16 07:47:22;;;;;;;21.37;15.23;;;;;;;;;;5093789;28;20447;-67
2023/08/16 07:49:49;;;;;;;27.63;17.43;;;;;;;;;;5093418;28;20473;-67
2023/08/16 07:52:19;;;;;;;24.67;16.77;;;;;;;;;;5093214;28;20527;-68
2023/08/16 07:54:46;;;;;;;24.10;16.97;;;;;;;;;;5093388;28;20554;-67
2023/08/16 07:57:14;;;;;;;19.30;16.23;;;;;;;;;;5093700;28;20933;-67
2023/08/16 07:59:41;;;;;;;20.30;13.67;;;;;;;;;;5093091;28;21067;-67
2023/08/16 08:02:09;;;;;;;18.57;13.87;;;;;;;;;;5093658;28;20493;-67
2023/08/16 08:04:38;;;;;;;25.27;14.73;;;;;;;;;;5092851;28;20625;-67
2023/08/16 08:07:05;;;;;;;18.17;14.60;;;;;;;;;;5092774;28;20457;-68
2023/08/16 08:09:32;;;;;;;27.37;17.87;;;;;;;;;;5093381;28;20525;-68
2023/08/16 08:11:59;;;;;;;19.50;14.37;;;;;;;;;;5092722;28;20885;-68
2023/08/16 08:14:27;;;;;;;17.30;14.17;;;;;;;;;;5092691;28;20936;-68
2023/08/16 08:16:54;;;;;;;18.17;16.00;;;;;;;;;;5092871;28;20542;-68
2023/08/16 08:19:21;;;;;;;22.80;15.07;;;;;;;;;;5092881;28;20482;-68
2023/08/16 08:21:50;;;;;;;19.60;16.00;;;;;;;;;;5092929;28;20439;-68
2023/08/16 08:24:17;;;;;;;17.57;13.93;;;;;;;;;;5092216;28;20545;-67
2023/08/16 08:26:44;;;;;;;21.37;14.63;;;;;;;;;;5093216;28;20436;-67
2023/08/16 08:29:12;;;;;;;25.97;15.23;;;;;;;;;;5092482;28;20441;-68
2023/08/16 08:31:39;;;;;;;23.20;14.93;;;;;;;;;;5088541;28;20522;-67
2023/08/16 08:34:06;;;;;;;18.90;15.87;;;;;;;;;;5089391;28;20440;-68
2023/08/16 08:36:33;;;;;;;20.40;15.20;;;;;;;;;;5092447;28;20475;-67
2023/08/16 08:39:02;;;;;;;20.57;14.07;;;;;;;;;;5092631;28;20856;-67
2023/08/16 08:41:29;;;;;;;19.50;15.17;;;;;;;;;;5092579;28;20434;-67
2023/08/16 08:43:56;;;;;;;17.60;13.43;;;;;;;;;;5092633;28;20525;-67
2023/08/16 08:46:24;;;;;;;16.07;12.00;;;;;;;;;;5092651;28;20525;-67
2023/08/16 08:48:51;;;;;;;14.10;10.93;;;;;;;;;;5092199;28;20774;-67
2023/08/16 08:51:18;;;;;;;12.37;11.03;;;;;;;;;;5092750;28;20475;-68
2023/08/16 08:53:46;;;;;;;13.57;12.03;;;;;;;;;;5096018;28;20900;-68
2023/08/16 08:56:16;;;;;;;13.90;10.33;;;;;;;;;;5096181;28;20442;-65
2023/08/16 08:58:45;;;;;;;9.93;8.93;;;;;;;;;;5095918;28;20442;-65
2023/08/16 09:01:13;;;;;;;11.90;10.00;;;;;;;;;;5096023;28;20912;-67
2023/08/16 09:03:41;;;;;;;9.50;8.50;;;;;;;;;;5095693;28;20435;-66
2023/08/16 09:06:09;;;;;;;9.43;8.53;;;;;;;;;;5095788;28;21011;-68
2023/08/16 09:08:37;;;;;;;7.73;6.97;;;;;;;;;;5095926;28;20525;-65
2023/08/16 09:11:04;;;;;;;10.03;7.67;;;;;;;;;;5096448;28;20458;-67
2023/08/16 09:13:33;;;;;;;10.17;8.30;;;;;;;;;;5096173;28;20478;-73
2023/08/16 09:16:01;;;;;;;10.03;8.20;;;;;;;;;;5095971;28;20435;-65
2023/08/16 09:18:29;;;;;;;9.60;7.30;;;;;;;;;;5095335;28;20434;-69
2023/08/16 09:20:59;;;;;;;9.87;7.47;;;;;;;;;;5095683;28;20898;-66
2023/08/16 09:23:27;;;;;;;8.17;7.40;;;;;;;;;;5094868;28;20924;-66
2023/08/16 09:26:00;;;;;;;15.70;8.20;;;;;;;;;;5095498;28;20525;-66
2023/08/16 09:28:31;;;;;;;9.70;7.63;;;;;;;;;;5095019;28;20467;-66
2023/08/16 09:31:05;;;;;;;10.57;7.80;;;;;;;;;;5095599;28;20513;-66
2023/08/16 09:33:35;;;;;;;6.70;6.10;;;;;;;;;;5095360;28;20800;-65
2023/08/16 09:36:03;;;;;;;11.50;7.20;;;;;;;;;;5095460;28;20865;-65
2023/08/16 09:38:30;;;;;;;7.90;7.10;;;;;;;;;;5094935;28;20439;-66
2023/08/16 09:40:57;;;;;;;8.13;7.13;;;;;;;;;;5095378;28;20479;-66
2023/08/16 09:43:24;;;;;;;10.03;7.00;;;;;;;;;;5095328;28;20441;-65
2023/08/16 09:45:53;;;;;;;10.80;5.77;;;;;;;;;;5095349;28;20792;-65
2023/08/16 09:48:22;;;;;;;8.73;7.40;;;;;;;;;;5095184;28;20442;-66
2023/08/16 09:50:49;;;;;;;7.97;6.43;;;;;;;;;;5095063;28;20439;-65
2023/08/16 09:53:17;;;;;;;6.80;6.20;;;;;;;;;;5094657;28;20964;-66
2023/08/16 09:55:50;;;;;;;10.93;6.60;;;;;;;;;;5095256;28;20420;-65
2023/08/16 09:58:18;;;;;;;8.67;6.43;;;;;;;;;;5094756;28;20504;-66
2023/08/16 10:00:47;;;;;;;8.00;6.47;;;;;;;;;;5095323;28;20902;-66
2023/08/16 10:03:14;;;;;;;8.17;6.33;;;;;;;;;;5094992;28;20442;-66
2023/08/16 10:05:44;;;;;;;9.27;7.27;;;;;;;;;;5095236;28;20514;-66
2023/08/16 10:08:11;;;;;;;9.20;6.77;;;;;;;;;;5094900;28;20926;-66
2023/08/16 10:10:38;;;;;;;7.07;5.70;;;;;;;;;;5094835;28;20526;-66
2023/08/16 10:13:05;;;;;;;8.63;6.13;;;;;;;;;;5095003;28;20799;-66
2023/08/16 10:15:33;;;;;;;6.83;6.20;;;;;;;;;;5094465;28;20442;-66
2023/08/16 10:18:02;;;;;;;11.00;6.47;;;;;;;;;;5094547;28;20454;-66
2023/08/16 10:20:32;;;;;;;6.90;6.30;;;;;;;;;;5094240;28;20471;-66
2023/08/16 10:23:01;;;;;;;6.60;5.53;;;;;;;;;;5094556;28;20959;-66
2023/08/16 10:25:29;;;;;;;13.17;6.30;;;;;;;;;;5094551;28;20443;-66
2023/08/16 10:27:57;;;;;;;9.00;6.10;;;;;;;;;;5094318;28;21023;-66
2023/08/16 10:30:25;;;;;;;6.10;5.60;;;;;;;;;;5094042;28;20451;-67
2023/08/16 10:32:55;;;;;;;11.20;5.83;;;;;;;;;;5094465;28;20464;-66
2023/08/16 10:35:22;;;;;;;6.33;5.50;;;;;;;;;;5094033;28;20478;-66
2023/08/16 10:37:49;;;;;;;7.27;5.47;;;;;;;;;;5094565;28;20522;-66
2023/08/16 10:40:18;;;;;;;4.90;4.50;;;;;;;;;;5093826;28;21017;-66
2023/08/16 10:42:56;;;;;;;5.97;5.37;;;;;;;;;;5094018;28;20463;-66
2023/08/16 10:45:27;;;;;;;4.80;4.47;;;;;;;;;;5094246;28;20518;-66
2023/08/16 10:47:54;;;;;;;7.97;5.13;;;;;;;;;;5094042;28;20446;-66
2023/08/16 10:50:22;;;;;;;6.20;4.70;;;;;;;;;;5094053;28;20848;-66
2023/08/16 10:52:50;;;;;;;6.07;4.40;;;;;;;;;;5094071;28;20542;-66
2023/08/16 10:55:25;;;;;;;7.53;4.20;;;;;;;;;;5094008;28;20464;-66
2023/08/16 10:57:53;;;;;;;7.50;5.13;;;;;;;;;;5094247;28;20503;-66
2023/08/16 11:00:20;;;;;;;4.83;3.87;;;;;;;;;;5093810;28;20479;-66
2023/08/16 11:02:51;;;;;;;5.50;4.43;;;;;;;;;;5094016;28;20451;-65
2023/08/16 11:05:20;;;;;;;5.43;4.37;;;;;;;;;;5093864;28;20448;-65
2023/08/16 11:07:50;;;;;;;6.47;4.63;;;;;;;;;;5093950;28;20446;-66
2023/08/16 11:10:17;;;;;;;4.87;4.40;;;;;;;;;;5093660;28;20471;-66
2023/08/16 11:12:46;;;;;;;6.40;4.80;;;;;;;;;;5093811;28;20954;-66
2023/08/16 11:15:18;;;;;;;4.83;4.27;;;;;;;;;;5093563;28;20440;-66
2023/08/16 11:17:45;;;;;;;4.50;4.00;;;;;;;;;;5094086;28;20416;-66
2023/08/16 11:20:15;;;;;;;9.67;4.03;;;;;;;;;;5093513;28;20895;-66
2023/08/16 11:22:43;;;;;;;5.53;4.00;;;;;;;;;;5093455;28;20472;-66
2023/08/16 11:25:10;;;;;;;6.00;4.13;;;;;;;;;;5093438;28;20535;-66
2023/08/16 11:27:38;;;;;;;5.00;3.97;;;;;;;;;;5093125;28;20439;-66
2023/08/16 11:30:08;;;;;;;5.20;3.90;;;;;;;;;;5093200;28;20436;-66
2023/08/16 11:32:36;;;;;;;5.00;4.60;;;;;;;;;;5093182;28;20466;-66
2023/08/16 11:35:08;;;;;;;5.40;4.90;;;;;;;;;;5093072;28;20446;-66
2023/08/16 11:37:35;;;;;;;5.60;4.00;;;;;;;;;;5092965;28;20536;-65
2023/08/16 11:40:04;;;;;;;5.37;3.63;;;;;;;;;;5093213;28;20471;-66
2023/08/16 11:42:31;;;;;;;9.27;4.73;;;;;;;;;;5092924;28;20538;-66
2023/08/16 11:44:59;;;;;;;4.20;3.80;;;;;;;;;;5093018;28;20442;-66
2023/08/16 11:47:27;;;;;;;3.80;3.50;;;;;;;;;;5092963;28;20519;-66
2023/08/16 11:49:54;;;;;;;4.70;4.00;;;;;;;;;;5092508;28;20442;-65
2023/08/16 11:52:22;;;;;;;4.70;4.20;;;;;;;;;;5092685;28;20438;-65
2023/08/16 11:55:00;;;;;;;5.30;3.70;;;;;;;;;;5092478;28;20479;-66
2023/08/16 11:57:27;;;;;;;5.60;4.10;;;;;;;;;;5093169;28;20424;-66
2023/08/16 11:59:55;;;;;;;3.70;3.27;;;;;;;;;;5092921;28;20526;-65
2023/08/16 12:02:23;;;;;;;5.53;4.13;;;;;;;;;;5092382;28;20796;-66
2023/08/16 12:04:52;;;;;;;4.43;3.53;;;;;;;;;;5092963;28;20449;-65
2023/08/16 12:07:19;;;;;;;4.43;3.07;;;;;;;;;;5092315;28;20446;-66
2023/08/16 12:09:49;;;;;;;8.47;4.00;;;;;;;;;;5092521;28;20443;-65
2023/08/16 12:12:17;;;;;;;6.33;4.30;;;;;;;;;;5091361;28;20934;-65
2023/08/16 12:14:44;;;;;;;5.43;3.47;;;;;;;;;;5092208;28;20440;-65
2023/08/16 12:17:11;;;;;;;3.73;3.43;;;;;;;;;;5092506;28;20532;-65
2023/08/16 12:19:38;;;;;;;6.93;3.30;;;;;;;;;;5092948;28;20527;-65
2023/08/16 12:22:07;;;;;;;4.70;3.33;;;;;;;;;;5092915;28;20472;-65
2023/08/16 12:24:34;;;;;;;8.97;4.30;;;;;;;;;;5093085;28;20534;-66
2023/08/16 12:27:02;;;;;;;3.43;3.00;;;;;;;;;;5093713;28;20463;-65
2023/08/16 12:29:29;;;;;;;3.83;2.97;;;;;;;;;;5097051;28;20531;-72
2023/08/16 12:31:57;;;;;;;10.10;4.17;;;;;;;;;;5096366;28;20916;-66
2023/08/16 12:34:24;;;;;;;3.90;3.60;;;;;;;;;;5097316;28;20526;-65
2023/08/16 12:36:51;;;;;;;13.80;3.50;;;;;;;;;;5097020;28;20431;-65
2023/08/16 12:39:20;;;;;;;5.53;4.00;;;;;;;;;;5096400;28;20507;-65
2023/08/16 12:41:47;;;;;;;7.57;4.93;;;;;;;;;;5096518;28;20475;-66
2023/08/16 12:44:15;;;;;;;6.80;3.60;;;;;;;;;;5096286;28;20893;-66
2023/08/16 12:46:42;;;;;;;4.03;3.33;;;;;;;;;;5096604;28;20498;-66
2023/08/16 12:49:09;;;;;;;5.70;4.30;;;;;;;;;;5096408;28;20531;-66
2023/08/16 12:51:37;;;;;;;6.10;4.70;;;;;;;;;;5096469;28;20439;-66
2023/08/16 12:54:04;;;;;;;9.57;3.90;;;;;;;;;;5096259;28;20920;-66
2023/08/16 12:56:33;;;;;;;5.10;4.60;;;;;;;;;;5087227;28;20443;-66
2023/08/16 12:59:00;;;;;;;5.30;4.57;;;;;;;;;;5075416;28;20519;-66
2023/08/16 13:01:27;;;;;;;7.80;4.20;;;;;;;;;;5075269;28;20833;-66
2023/08/16 13:03:55;;;;;;;4.40;4.00;;;;;;;;;;5076068;28;20758;-66
2023/08/16 13:06:22;;;;;;;5.37;3.70;;;;;;;;;;5075657;28;20441;-66
2023/08/16 13:08:49;;;;;;;6.73;3.60;;;;;;;;;;5075378;28;20544;-63
2023/08/16 13:11:16;;;;;;;3.60;3.30;;;;;;;;;;5075228;28;20913;-64
2023/08/16 13:13:45;;;;;;;4.47;4.07;;;;;;;;;;5075288;28;20453;-66
2023/08/16 13:16:12;;;;;;;8.30;4.03;;;;;;;;;;5075311;28;20836;-66
2023/08/16 13:18:39;;;;;;;4.13;3.40;;;;;;;;;;5075342;28;20517;-66
2023/08/16 13:21:08;;;;;;;7.00;3.83;;;;;;;;;;5074476;28;20570;-66
2023/08/16 13:23:36;;;;;;;5.70;4.03;;;;;;;;;;5074847;28;20459;-66
2023/08/16 13:26:03;;;;;;;4.73;4.27;;;;;;;;;;5074039;28;20533;-65
2023/08/16 13:28:31;;;;;;;4.00;3.30;;;;;;;;;;5074546;28;20542;-65
2023/08/16 13:30:59;;;;;;;5.40;3.07;;;;;;;;;;5074633;28;20452;-65
2023/08/16 13:33:27;;;;;;;5.00;3.40;;;;;;;;;;5074532;28;20444;-65
2023/08/16 13:35:54;;;;;;;4.07;3.63;;;;;;;;;;5075215;28;20499;-65
2023/08/16 13:38:21;;;;;;;4.83;3.70;;;;;;;;;;5074363;28;20488;-65
2023/08/16 13:40:49;;;;;;;4.00;3.27;;;;;;;;;;5074882;28;20483;-63
2023/08/16 13:43:16;;;;;;;3.63;3.20;;;;;;;;;;5074679;28;20443;-64
2023/08/16 13:45:44;;;;;;;3.80;3.50;;;;;;;;;;5074203;28;20980;-63
2023/08/16 13:48:13;;;;;;;3.40;3.10;;;;;;;;;;5074431;28;20436;-64
2023/08/16 13:50:40;;;;;;;3.80;3.50;;;;;;;;;;5074629;28;20521;-64
2023/08/16 13:53:07;;;;;;;5.23;3.70;;;;;;;;;;5074243;28;20439;-64
2023/08/16 13:55:35;;;;;;;5.07;4.53;;;;;;;;;;5074462;28;20947;-64
2023/08/16 13:58:02;;;;;;;8.43;4.63;;;;;;;;;;5074379;28;20483;-64
2023/08/16 14:00:29;;;;;;;9.10;8.00;;;;;;;;;;5074054;28;20533;-64
2023/08/16 14:02:56;;;;;;;5.17;4.40;;;;;;;;;;5074169;28;20434;-64
2023/08/16 14:05:25;;;;;;;5.63;3.93;;;;;;;;;;5074412;28;20470;-64
2023/08/16 14:07:52;;;;;;;3.83;3.50;;;;;;;;;;5074000;28;20991;-64
2023/08/16 14:10:19;;;;;;;4.00;3.43;;;;;;;;;;5074802;28;20468;-64
2023/08/16 14:12:46;;;;;;;4.20;3.90;;;;;;;;;;5073950;28;20535;-63
2023/08/16 14:15:13;;;;;;;4.23;3.90;;;;;;;;;;5073840;28;20940;-63
2023/08/16 14:17:41;;;;;;;9.13;4.00;;;;;;;;;;5074429;28;20576;-64
2023/08/16 14:20:09;;;;;;;4.43;4.03;;;;;;;;;;5074675;28;20470;-64
2023/08/16 14:22:37;;;;;;;3.97;3.50;;;;;;;;;;5073789;28;20504;-64
2023/08/16 14:25:05;;;;;;;4.60;3.50;;;;;;;;;;5077475;28;20461;-64
2023/08/16 14:27:32;;;;;;;4.00;3.07;;;;;;;;;;5094153;28;20942;-63
2023/08/16 14:29:59;;;;;;;3.50;2.97;;;;;;;;;;5094310;28;20878;-64
2023/08/16 14:32:26;;;;;;;4.47;3.00;;;;;;;;;;5094139;28;20450;-64
2023/08/16 14:34:56;;;;;;;4.50;3.60;;;;;;;;;;5094020;28;20533;-64